sensor_id;sensor_type;location;lat;lon;timestamp;pressure;altitude;pressure_sealevel;temperature;humidity
37200;BME280;23096;50.892;16.746;2023-01-28T00:02:24;99929.23;;;-0.53;86.55
37200;BME280;23096;50.892;16.746;2023-01-28T00:04:49;99928.22;;;-0.53;86.60
37200;BME280;23096;50.892;16.746;2023-01-28T00:07:15;99923.67;;;-0.53;86.50
37200;BME280;23096;50.892;16.746;2023-01-28T00:09:41;99927.85;;;-0.54;86.55
37200;BME280;23096;50.892;16.746;2023-01-28T00:12:06;99928.17;;;-0.56;86.58
37200;BME280;23096;50.892;16.746;2023-01-28T00:14:32;99932.69;;;-0.57;86.73
37200;BME280;23096;50.892;16.746;2023-01-28T00:16:57;99933.35;;;-0.57;86.50
37200;BME280;23096;50.892;16.746;2023-01-28T00:19:23;99932.98;;;-0.59;86.64
37200;BME280;23096;50.892;16.746;2023-01-28T00:21:49;99933.83;;;-0.59;86.62
37200;BME280;23096;50.892;16.746;2023-01-28T00:24:15;99934.05;;;-0.57;86.63
37200;BME280;23096;50.892;16.746;2023-01-28T00:26:40;99932.48;;;-0.59;86.70
37200;BME280;23096;50.892;16.746;2023-01-28T00:29:05;99928.92;;;-0.60;86.59
37200;BME280;23096;50.892;16.746;2023-01-28T00:31:31;99928.92;;;-0.59;86.72
37200;BME280;23096;50.892;16.746;2023-01-28T00:33:58;99929.44;;;-0.58;86.71
37200;BME280;23096;50.892;16.746;2023-01-28T00:36:24;99928.14;;;-0.57;86.69
37200;BME280;23096;50.892;16.746;2023-01-28T00:38:51;99931.65;;;-0.58;86.78
37200;BME280;23096;50.892;16.746;2023-01-28T00:41:18;99930.02;;;-0.56;86.74
37200;BME280;23096;50.892;16.746;2023-01-28T00:43:46;99926.32;;;-0.56;86.63
37200;BME280;23096;50.892;16.746;2023-01-28T00:46:11;99931.38;;;-0.56;86.64
37200;BME280;23096;50.892;16.746;2023-01-28T00:48:38;99929.02;;;-0.55;86.77
37200;BME280;23096;50.892;16.746;2023-01-28T00:51:04;99932.73;;;-0.56;86.59
37200;BME280;23096;50.892;16.746;2023-01-28T00:53:30;99930.52;;;-0.56;86.71
37200;BME280;23096;50.892;16.746;2023-01-28T00:55:55;99931.75;;;-0.53;86.73
37200;BME280;23096;50.892;16.746;2023-01-28T00:58:23;99930.29;;;-0.51;86.76
37200;BME280;23096;50.892;16.746;2023-01-28T01:00:49;99931.30;;;-0.52;86.74
37200;BME280;23096;50.892;16.746;2023-01-28T01:03:16;99923.13;;;-0.54;86.60
37200;BME280;23096;50.892;16.746;2023-01-28T01:05:42;99923.80;;;-0.54;86.68
37200;BME280;23096;50.892;16.746;2023-01-28T01:08:07;99924.98;;;-0.54;86.63
37200;BME280;23096;50.892;16.746;2023-01-28T01:10:33;99922.45;;;-0.54;86.71
37200;BME280;23096;50.892;16.746;2023-01-28T01:12:58;99925.55;;;-0.52;86.70
37200;BME280;23096;50.892;16.746;2023-01-28T01:15:24;99925.09;;;-0.50;86.74
37200;BME280;23096;50.892;16.746;2023-01-28T01:17:50;99922.05;;;-0.50;86.77
37200;BME280;23096;50.892;16.746;2023-01-28T01:20:17;99924.73;;;-0.51;86.69
37200;BME280;23096;50.892;16.746;2023-01-28T01:22:42;99929.79;;;-0.51;86.64
37200;BME280;23096;50.892;16.746;2023-01-28T01:25:08;99932.98;;;-0.51;86.64
37200;BME280;23096;50.892;16.746;2023-01-28T01:27:33;99935.39;;;-0.50;86.77
37200;BME280;23096;50.892;16.746;2023-01-28T01:29:59;99937.92;;;-0.50;86.84
37200;BME280;23096;50.892;16.746;2023-01-28T01:32:28;99936.89;;;-0.51;86.74
37200;BME280;23096;50.892;16.746;2023-01-28T01:34:53;99933.87;;;-0.50;86.66
37200;BME280;23096;50.892;16.746;2023-01-28T01:37:19;99934.87;;;-0.51;86.70
37200;BME280;23096;50.892;16.746;2023-01-28T01:39:44;99936.19;;;-0.52;86.60
37200;BME280;23096;50.892;16.746;2023-01-28T01:42:10;99940.73;;;-0.53;86.73
37200;BME280;23096;50.892;16.746;2023-01-28T01:47:18;99945.52;;;-0.50;86.80
37200;BME280;23096;50.892;16.746;2023-01-28T01:49:45;99952.77;;;-0.50;86.71
37200;BME280;23096;50.892;16.746;2023-01-28T01:52:18;99953.37;;;-0.53;86.68
37200;BME280;23096;50.892;16.746;2023-01-28T01:54:46;99956.18;;;-0.55;86.66
37200;BME280;23096;50.892;16.746;2023-01-28T01:57:14;99963.46;;;-0.54;86.88
37200;BME280;23096;50.892;16.746;2023-01-28T01:59:40;99965.64;;;-0.55;86.81
37200;BME280;23096;50.892;16.746;2023-01-28T02:02:06;99965.30;;;-0.55;86.82
37200;BME280;23096;50.892;16.746;2023-01-28T02:04:39;99970.89;;;-0.54;86.85
37200;BME280;23096;50.892;16.746;2023-01-28T02:07:05;99971.23;;;-0.54;86.82
37200;BME280;23096;50.892;16.746;2023-01-28T02:09:33;99975.64;;;-0.54;86.82
37200;BME280;23096;50.892;16.746;2023-01-28T02:12:05;99972.09;;;-0.54;86.72
37200;BME280;23096;50.892;16.746;2023-01-28T02:14:32;99971.77;;;-0.53;86.78
37200;BME280;23096;50.892;16.746;2023-01-28T02:16:59;99974.44;;;-0.54;86.86
37200;BME280;23096;50.892;16.746;2023-01-28T02:19:26;99974.77;;;-0.55;86.86
37200;BME280;23096;50.892;16.746;2023-01-28T02:22:04;99971.55;;;-0.55;86.83
37200;BME280;23096;50.892;16.746;2023-01-28T02:24:44;99972.15;;;-0.58;86.82
37200;BME280;23096;50.892;16.746;2023-01-28T02:27:30;99973.48;;;-0.59;86.84
37200;BME280;23096;50.892;16.746;2023-01-28T02:30:06;99975.15;;;-0.60;86.92
37200;BME280;23096;50.892;16.746;2023-01-28T02:39:58;99980.48;;;-0.70;86.75
37200;BME280;23096;50.892;16.746;2023-01-28T02:42:26;99975.00;;;-0.73;86.69
37200;BME280;23096;50.892;16.746;2023-01-28T02:44:53;99972.42;;;-0.74;86.78
37200;BME280;23096;50.892;16.746;2023-01-28T02:47:18;99975.95;;;-0.75;86.77
37200;BME280;23096;50.892;16.746;2023-01-28T02:50:11;99973.03;;;-0.78;86.73
37200;BME280;23096;50.892;16.746;2023-01-28T02:55:47;99975.89;;;-0.84;86.85
37200;BME280;23096;50.892;16.746;2023-01-28T03:01:01;99976.13;;;-0.88;86.80
37200;BME280;23096;50.892;16.746;2023-01-28T03:06:05;99973.55;;;-0.90;86.69
37200;BME280;23096;50.892;16.746;2023-01-28T03:08:37;99974.33;;;-0.93;86.87
37200;BME280;23096;50.892;16.746;2023-01-28T03:11:33;99976.33;;;-0.93;86.80
37200;BME280;23096;50.892;16.746;2023-01-28T03:14:19;99976.13;;;-0.94;86.86
37200;BME280;23096;50.892;16.746;2023-01-28T03:17:04;99978.48;;;-0.95;86.80
37200;BME280;23096;50.892;16.746;2023-01-28T03:19:50;99976.23;;;-0.97;86.80
37200;BME280;23096;50.892;16.746;2023-01-28T03:22:34;99978.02;;;-1.00;86.89
37200;BME280;23096;50.892;16.746;2023-01-28T03:25:20;99972.47;;;-0.99;86.88
37200;BME280;23096;50.892;16.746;2023-01-28T03:28:06;99973.16;;;-0.99;86.96
37200;BME280;23096;50.892;16.746;2023-01-28T03:30:56;99973.83;;;-0.99;86.92
37200;BME280;23096;50.892;16.746;2023-01-28T03:33:49;99974.94;;;-1.02;86.95
37200;BME280;23096;50.892;16.746;2023-01-28T03:36:34;99976.82;;;-1.07;86.78
37200;BME280;23096;50.892;16.746;2023-01-28T03:39:36;99980.63;;;-1.10;86.88
37200;BME280;23096;50.892;16.746;2023-01-28T03:44:31;99983.69;;;-1.15;86.83
37200;BME280;23096;50.892;16.746;2023-01-28T03:47:15;99980.74;;;-1.18;86.76
37200;BME280;23096;50.892;16.746;2023-01-28T03:49:41;99980.45;;;-1.23;86.79
37200;BME280;23096;50.892;16.746;2023-01-28T03:52:10;99982.21;;;-1.26;86.84
37200;BME280;23096;50.892;16.746;2023-01-28T03:54:36;99985.06;;;-1.26;86.96
37200;BME280;23096;50.892;16.746;2023-01-28T03:57:01;99984.34;;;-1.28;86.91
37200;BME280;23096;50.892;16.746;2023-01-28T03:59:27;99985.67;;;-1.29;86.93
37200;BME280;23096;50.892;16.746;2023-01-28T04:01:52;99988.40;;;-1.27;87.01
37200;BME280;23096;50.892;16.746;2023-01-28T04:04:19;99989.77;;;-1.27;87.06
37200;BME280;23096;50.892;16.746;2023-01-28T04:06:52;99991.41;;;-1.28;87.04
37200;BME280;23096;50.892;16.746;2023-01-28T04:09:23;99996.77;;;-1.30;87.01
37200;BME280;23096;50.892;16.746;2023-01-28T04:11:54;99995.05;;;-1.31;87.00
37200;BME280;23096;50.892;16.746;2023-01-28T04:14:27;100000.23;;;-1.32;86.87
37200;BME280;23096;50.892;16.746;2023-01-28T04:17:01;99999.90;;;-1.32;86.93
37200;BME280;23096;50.892;16.746;2023-01-28T04:19:28;99998.27;;;-1.31;86.96
37200;BME280;23096;50.892;16.746;2023-01-28T04:21:55;100000.98;;;-1.29;87.05
37200;BME280;23096;50.892;16.746;2023-01-28T04:24:21;100000.26;;;-1.32;86.89
37200;BME280;23096;50.892;16.746;2023-01-28T04:26:47;100002.52;;;-1.36;86.98
37200;BME280;23096;50.892;16.746;2023-01-28T04:29:14;100003.98;;;-1.37;87.09
37200;BME280;23096;50.892;16.746;2023-01-28T04:31:39;100002.52;;;-1.41;87.03
37200;BME280;23096;50.892;16.746;2023-01-28T04:34:15;100005.68;;;-1.43;87.08
37200;BME280;23096;50.892;16.746;2023-01-28T04:36:51;100009.04;;;-1.43;86.97
37200;BME280;23096;50.892;16.746;2023-01-28T04:39:41;100010.35;;;-1.44;86.96
37200;BME280;23096;50.892;16.746;2023-01-28T04:42:15;100012.66;;;-1.46;87.01
37200;BME280;23096;50.892;16.746;2023-01-28T04:44:52;100016.71;;;-1.46;87.04
37200;BME280;23096;50.892;16.746;2023-01-28T04:47:36;100018.07;;;-1.45;87.07
37200;BME280;23096;50.892;16.746;2023-01-28T04:50:25;100021.39;;;-1.47;87.01
37200;BME280;23096;50.892;16.746;2023-01-28T04:53:08;100023.05;;;-1.48;86.92
37200;BME280;23096;50.892;16.746;2023-01-28T04:55:44;100025.18;;;-1.50;87.09
37200;BME280;23096;50.892;16.746;2023-01-28T04:58:10;100019.76;;;-1.51;87.04
37200;BME280;23096;50.892;16.746;2023-01-28T05:00:35;100023.91;;;-1.53;87.01
37200;BME280;23096;50.892;16.746;2023-01-28T05:16:50;100026.12;;;-1.47;87.22
37200;BME280;23096;50.892;16.746;2023-01-28T05:19:16;100029.95;;;-1.49;87.17
37200;BME280;23096;50.892;16.746;2023-01-28T05:21:44;100030.50;;;-1.47;87.21
37200;BME280;23096;50.892;16.746;2023-01-28T05:24:19;100034.80;;;-1.44;87.22
37200;BME280;23096;50.892;16.746;2023-01-28T05:26:45;100038.84;;;-1.44;87.13
37200;BME280;23096;50.892;16.746;2023-01-28T05:29:11;100040.70;;;-1.44;87.24
37200;BME280;23096;50.892;16.746;2023-01-28T05:31:38;100045.84;;;-1.47;87.29
37200;BME280;23096;50.892;16.746;2023-01-28T05:34:03;100048.05;;;-1.52;87.19
37200;BME280;23096;50.892;16.746;2023-01-28T05:36:29;100049.91;;;-1.57;87.11
37200;BME280;23096;50.892;16.746;2023-01-28T05:38:55;100055.27;;;-1.59;87.27
37200;BME280;23096;50.892;16.746;2023-01-28T05:41:20;100054.23;;;-1.59;87.25
37200;BME280;23096;50.892;16.746;2023-01-28T05:43:52;100057.56;;;-1.61;87.28
37200;BME280;23096;50.892;16.746;2023-01-28T05:46:26;100053.95;;;-1.63;87.30
37200;BME280;23096;50.892;16.746;2023-01-28T05:49:05;100058.41;;;-1.66;87.36
37200;BME280;23096;50.892;16.746;2023-01-28T05:52:07;100059.29;;;-1.70;87.30
37200;BME280;23096;50.892;16.746;2023-01-28T05:54:33;100052.38;;;-1.70;87.17
37200;BME280;23096;50.892;16.746;2023-01-28T05:56:58;100055.70;;;-1.73;87.25
37200;BME280;23096;50.892;16.746;2023-01-28T05:59:24;100053.27;;;-1.75;87.20
37200;BME280;23096;50.892;16.746;2023-01-28T06:01:52;100050.82;;;-1.72;87.34
37200;BME280;23096;50.892;16.746;2023-01-28T06:04:19;100053.29;;;-1.68;87.40
37200;BME280;23096;50.892;16.746;2023-01-28T06:06:45;100059.11;;;-1.70;87.34
37200;BME280;23096;50.892;16.746;2023-01-28T06:09:10;100058.42;;;-1.71;87.28
37200;BME280;23096;50.892;16.746;2023-01-28T06:11:36;100059.48;;;-1.70;87.30
37200;BME280;23096;50.892;16.746;2023-01-28T06:14:03;100064.07;;;-1.68;87.29
37200;BME280;23096;50.892;16.746;2023-01-28T06:17:01;100065.30;;;-1.71;87.29
37200;BME280;23096;50.892;16.746;2023-01-28T06:19:45;100070.13;;;-1.74;87.25
37200;BME280;23096;50.892;16.746;2023-01-28T06:22:10;100069.60;;;-1.75;87.30
37200;BME280;23096;50.892;16.746;2023-01-28T06:24:35;100070.83;;;-1.74;87.38
37200;BME280;23096;50.892;16.746;2023-01-28T06:27:22;100076.08;;;-1.73;87.27
37200;BME280;23096;50.892;16.746;2023-01-28T06:29:47;100076.53;;;-1.74;87.35
37200;BME280;23096;50.892;16.746;2023-01-28T06:32:12;100079.86;;;-1.76;87.33
37200;BME280;23096;50.892;16.746;2023-01-28T06:34:38;100082.56;;;-1.75;87.35
37200;BME280;23096;50.892;16.746;2023-01-28T06:37:03;100081.39;;;-1.76;87.26
37200;BME280;23096;50.892;16.746;2023-01-28T06:39:29;100079.32;;;-1.76;87.36
37200;BME280;23096;50.892;16.746;2023-01-28T06:41:58;100081.58;;;-1.80;87.26
37200;BME280;23096;50.892;16.746;2023-01-28T06:44:24;100087.80;;;-1.80;87.38
37200;BME280;23096;50.892;16.746;2023-01-28T06:46:49;100089.63;;;-1.81;87.39
37200;BME280;23096;50.892;16.746;2023-01-28T06:49:14;100094.41;;;-1.84;87.36
37200;BME280;23096;50.892;16.746;2023-01-28T06:51:40;100095.91;;;-1.85;87.44
37200;BME280;23096;50.892;16.746;2023-01-28T06:54:05;100094.09;;;-1.83;87.48
37200;BME280;23096;50.892;16.746;2023-01-28T06:56:31;100094.55;;;-1.85;87.50
37200;BME280;23096;50.892;16.746;2023-01-28T06:58:56;100103.45;;;-1.86;87.47
37200;BME280;23096;50.892;16.746;2023-01-28T07:01:22;100105.23;;;-1.88;87.42
37200;BME280;23096;50.892;16.746;2023-01-28T07:03:47;100111.76;;;-1.90;87.36
37200;BME280;23096;50.892;16.746;2023-01-28T07:06:12;100117.64;;;-1.89;87.42
37200;BME280;23096;50.892;16.746;2023-01-28T07:08:38;100121.42;;;-1.88;87.55
37200;BME280;23096;50.892;16.746;2023-01-28T07:11:04;100126.17;;;-1.86;87.50
37200;BME280;23096;50.892;16.746;2023-01-28T07:13:29;100127.77;;;-1.89;87.40
37200;BME280;23096;50.892;16.746;2023-01-28T07:15:55;100131.16;;;-1.89;87.45
37200;BME280;23096;50.892;16.746;2023-01-28T07:18:21;100131.98;;;-1.89;87.41
37200;BME280;23096;50.892;16.746;2023-01-28T07:20:46;100131.13;;;-1.89;87.40
37200;BME280;23096;50.892;16.746;2023-01-28T07:23:14;100136.97;;;-1.91;87.38
37200;BME280;23096;50.892;16.746;2023-01-28T07:25:40;100143.18;;;-1.92;87.38
37200;BME280;23096;50.892;16.746;2023-01-28T07:28:05;100140.59;;;-1.94;87.38
37200;BME280;23096;50.892;16.746;2023-01-28T07:30:30;100142.63;;;-1.93;87.44
37200;BME280;23096;50.892;16.746;2023-01-28T07:32:57;100140.30;;;-1.92;87.39
37200;BME280;23096;50.892;16.746;2023-01-28T07:35:22;100141.91;;;-1.94;87.30
37200;BME280;23096;50.892;16.746;2023-01-28T07:37:55;100145.98;;;-1.94;87.43
37200;BME280;23096;50.892;16.746;2023-01-28T07:40:21;100141.66;;;-1.92;87.36
37200;BME280;23096;50.892;16.746;2023-01-28T07:42:46;100144.30;;;-1.93;87.31
37200;BME280;23096;50.892;16.746;2023-01-28T07:45:12;100149.65;;;-1.95;87.44
37200;BME280;23096;50.892;16.746;2023-01-28T07:47:37;100148.83;;;-1.94;87.44
37200;BME280;23096;50.892;16.746;2023-01-28T07:50:03;100142.75;;;-1.95;87.53
37200;BME280;23096;50.892;16.746;2023-01-28T07:52:28;100146.05;;;-1.91;87.46
37200;BME280;23096;50.892;16.746;2023-01-28T07:54:53;100142.26;;;-1.89;87.60
37200;BME280;23096;50.892;16.746;2023-01-28T07:57:19;100147.90;;;-1.92;87.41
37200;BME280;23096;50.892;16.746;2023-01-28T07:59:48;100149.20;;;-1.93;87.43
37200;BME280;23096;50.892;16.746;2023-01-28T08:02:14;100150.84;;;-1.94;87.50
37200;BME280;23096;50.892;16.746;2023-01-28T08:04:39;100148.48;;;-1.94;87.41
37200;BME280;23096;50.892;16.746;2023-01-28T08:07:05;100152.16;;;-1.95;87.45
37200;BME280;23096;50.892;16.746;2023-01-28T08:09:30;100154.88;;;-1.95;87.37
37200;BME280;23096;50.892;16.746;2023-01-28T08:11:58;100157.04;;;-1.96;87.40
37200;BME280;23096;50.892;16.746;2023-01-28T08:14:26;100160.02;;;-1.92;87.42
37200;BME280;23096;50.892;16.746;2023-01-28T08:16:51;100158.18;;;-1.91;87.51
37200;BME280;23096;50.892;16.746;2023-01-28T08:19:16;100157.70;;;-1.90;87.48
37200;BME280;23096;50.892;16.746;2023-01-28T08:21:43;100157.91;;;-1.89;87.42
37200;BME280;23096;50.892;16.746;2023-01-28T08:24:08;100155.79;;;-1.87;87.52
37200;BME280;23096;50.892;16.746;2023-01-28T08:26:34;100162.16;;;-1.88;87.48
37200;BME280;23096;50.892;16.746;2023-01-28T08:28:59;100157.11;;;-1.88;87.47
37200;BME280;23096;50.892;16.746;2023-01-28T08:31:26;100163.48;;;-1.89;87.53
37200;BME280;23096;50.892;16.746;2023-01-28T08:33:51;100165.85;;;-1.89;87.50
37200;BME280;23096;50.892;16.746;2023-01-28T08:36:17;100164.34;;;-1.89;87.48
37200;BME280;23096;50.892;16.746;2023-01-28T08:38:42;100164.77;;;-1.91;87.41
37200;BME280;23096;50.892;16.746;2023-01-28T08:41:07;100158.20;;;-1.91;87.44
37200;BME280;23096;50.892;16.746;2023-01-28T08:43:33;100157.85;;;-1.91;87.54
37200;BME280;23096;50.892;16.746;2023-01-28T08:46:05;100161.70;;;-1.92;87.45
37200;BME280;23096;50.892;16.746;2023-01-28T08:48:31;100162.92;;;-1.90;87.48
37200;BME280;23096;50.892;16.746;2023-01-28T08:50:57;100164.48;;;-1.89;87.52
37200;BME280;23096;50.892;16.746;2023-01-28T08:53:23;100160.84;;;-1.87;87.60
37200;BME280;23096;50.892;16.746;2023-01-28T08:55:48;100160.95;;;-1.89;87.47
37200;BME280;23096;50.892;16.746;2023-01-28T08:58:15;100162.34;;;-1.88;87.49
37200;BME280;23096;50.892;16.746;2023-01-28T09:00:41;100160.79;;;-1.89;87.47
37200;BME280;23096;50.892;16.746;2023-01-28T09:03:06;100163.85;;;-1.88;87.48
37200;BME280;23096;50.892;16.746;2023-01-28T09:05:35;100162.18;;;-1.87;87.43
37200;BME280;23096;50.892;16.746;2023-01-28T09:08:02;100160.94;;;-1.89;87.43
37200;BME280;23096;50.892;16.746;2023-01-28T09:10:28;100167.13;;;-1.91;87.46
37200;BME280;23096;50.892;16.746;2023-01-28T09:12:53;100164.27;;;-1.90;87.51
37200;BME280;23096;50.892;16.746;2023-01-28T09:15:18;100166.82;;;-1.95;87.40
37200;BME280;23096;50.892;16.746;2023-01-28T09:17:44;100171.21;;;-1.95;87.51
37200;BME280;23096;50.892;16.746;2023-01-28T09:20:10;100173.06;;;-1.95;87.50
37200;BME280;23096;50.892;16.746;2023-01-28T09:22:36;100180.44;;;-1.96;87.46
37200;BME280;23096;50.892;16.746;2023-01-28T09:25:02;100184.27;;;-1.97;87.40
37200;BME280;23096;50.892;16.746;2023-01-28T09:27:27;100185.41;;;-1.98;87.52
37200;BME280;23096;50.892;16.746;2023-01-28T09:29:53;100187.02;;;-1.96;87.45
37200;BME280;23096;50.892;16.746;2023-01-28T09:32:18;100186.52;;;-1.96;87.50
37200;BME280;23096;50.892;16.746;2023-01-28T09:34:44;100188.15;;;-1.97;87.48
37200;BME280;23096;50.892;16.746;2023-01-28T09:37:09;100188.40;;;-1.94;87.53
37200;BME280;23096;50.892;16.746;2023-01-28T09:39:35;100188.13;;;-1.92;87.54
37200;BME280;23096;50.892;16.746;2023-01-28T09:47:21;100197.94;;;-1.90;87.62
37200;BME280;23096;50.892;16.746;2023-01-28T09:49:48;100196.36;;;-1.88;87.60
37200;BME280;23096;50.892;16.746;2023-01-28T09:52:16;100194.88;;;-1.87;87.55
37200;BME280;23096;50.892;16.746;2023-01-28T09:58:15;100201.67;;;-1.85;87.48
37200;BME280;23096;50.892;16.746;2023-01-28T10:00:12;100201.53;;;-1.85;87.57
37200;BME280;23096;50.892;16.746;2023-01-28T10:05:13;100205.02;;;-1.85;87.57
37200;BME280;23096;50.892;16.746;2023-01-28T10:07:51;100205.08;;;-1.89;87.49
37200;BME280;23096;50.892;16.746;2023-01-28T10:13:01;100200.30;;;-1.91;87.51
37200;BME280;23096;50.892;16.746;2023-01-28T10:17:55;100206.30;;;-1.88;87.59
37200;BME280;23096;50.892;16.746;2023-01-28T10:20:26;100210.15;;;-1.84;87.65
37200;BME280;23096;50.892;16.746;2023-01-28T10:22:57;100207.67;;;-1.82;87.45
37200;BME280;23096;50.892;16.746;2023-01-28T10:25:27;100208.52;;;-1.82;87.51
37200;BME280;23096;50.892;16.746;2023-01-28T10:27:54;100207.36;;;-1.81;87.44
37200;BME280;23096;50.892;16.746;2023-01-28T10:30:24;100207.02;;;-1.81;87.42
37200;BME280;23096;50.892;16.746;2023-01-28T10:32:51;100204.75;;;-1.84;87.46
37200;BME280;23096;50.892;16.746;2023-01-28T10:35:17;100204.45;;;-1.88;87.36
37200;BME280;23096;50.892;16.746;2023-01-28T10:37:43;100201.65;;;-1.91;87.40
37200;BME280;23096;50.892;16.746;2023-01-28T10:40:12;100202.68;;;-1.90;87.44
37200;BME280;23096;50.892;16.746;2023-01-28T10:42:39;100196.34;;;-1.89;87.57
37200;BME280;23096;50.892;16.746;2023-01-28T10:47:36;100203.39;;;-1.89;87.37
37200;BME280;23096;50.892;16.746;2023-01-28T10:50:02;100202.08;;;-1.88;87.48
37200;BME280;23096;50.892;16.746;2023-01-28T10:52:29;100204.05;;;-1.90;87.45
37200;BME280;23096;50.892;16.746;2023-01-28T10:55:04;100204.29;;;-1.93;87.47
37200;BME280;23096;50.892;16.746;2023-01-28T10:57:32;100206.58;;;-1.90;87.46
37200;BME280;23096;50.892;16.746;2023-01-28T11:00:07;100206.97;;;-1.88;87.43
37200;BME280;23096;50.892;16.746;2023-01-28T11:02:33;100207.95;;;-1.89;87.52
37200;BME280;23096;50.892;16.746;2023-01-28T11:07:26;100206.19;;;-1.86;87.38
37200;BME280;23096;50.892;16.746;2023-01-28T11:09:53;100205.58;;;-1.89;87.35
37200;BME280;23096;50.892;16.746;2023-01-28T11:12:19;100205.47;;;-1.93;87.38
37200;BME280;23096;50.892;16.746;2023-01-28T11:15:04;100209.98;;;-1.94;87.41
37200;BME280;23096;50.892;16.746;2023-01-28T11:17:31;100207.80;;;-1.93;87.33
37200;BME280;23096;50.892;16.746;2023-01-28T11:19:58;100211.85;;;-1.93;87.35
37200;BME280;23096;50.892;16.746;2023-01-28T11:24:57;100212.02;;;-2.03;87.33
37200;BME280;23096;50.892;16.746;2023-01-28T11:27:26;100210.15;;;-2.04;87.39
37200;BME280;23096;50.892;16.746;2023-01-28T11:29:53;100206.17;;;-2.07;87.37
37200;BME280;23096;50.892;16.746;2023-01-28T11:32:20;100203.88;;;-2.05;87.45
37200;BME280;23096;50.892;16.746;2023-01-28T11:34:52;100206.67;;;-2.01;87.46
37200;BME280;23096;50.892;16.746;2023-01-28T11:37:20;100205.00;;;-2.01;87.45
37200;BME280;23096;50.892;16.746;2023-01-28T11:39:47;100204.73;;;-2.05;87.39
37200;BME280;23096;50.892;16.746;2023-01-28T11:42:19;100202.06;;;-2.08;87.41
37200;BME280;23096;50.892;16.746;2023-01-28T11:44:45;100201.13;;;-2.06;87.37
37200;BME280;23096;50.892;16.746;2023-01-28T11:54:55;100200.20;;;-2.09;87.42
37200;BME280;23096;50.892;16.746;2023-01-28T12:00:22;100205.52;;;-2.06;87.48
37200;BME280;23096;50.892;16.746;2023-01-28T12:02:52;100200.84;;;-2.05;87.43
37200;BME280;23096;50.892;16.746;2023-01-28T12:13:19;100204.39;;;-2.00;87.35
37200;BME280;23096;50.892;16.746;2023-01-28T12:20:51;100203.70;;;-2.00;87.34
37200;BME280;23096;50.892;16.746;2023-01-28T12:24:08;100201.15;;;-2.06;87.20
37200;BME280;23096;50.892;16.746;2023-01-28T12:28:47;100198.50;;;-2.05;87.35
37200;BME280;23096;50.892;16.746;2023-01-28T12:34:02;100196.13;;;-2.05;87.32
37200;BME280;23096;50.892;16.746;2023-01-28T12:36:39;100201.56;;;-2.04;87.30
37200;BME280;23096;50.892;16.746;2023-01-28T12:41:53;100200.13;;;-2.01;87.25
37200;BME280;23096;50.892;16.746;2023-01-28T12:44:25;100205.15;;;-1.97;87.38
37200;BME280;23096;50.892;16.746;2023-01-28T12:46:57;100206.54;;;-1.96;87.18
37200;BME280;23096;50.892;16.746;2023-01-28T12:49:27;100204.89;;;-2.00;87.22
37200;BME280;23096;50.892;16.746;2023-01-28T12:52:05;100202.10;;;-2.02;87.21
37200;BME280;23096;50.892;16.746;2023-01-28T12:57:20;100208.93;;;-2.05;87.08
37200;BME280;23096;50.892;16.746;2023-01-28T12:59:48;100205.45;;;-2.08;87.14
37200;BME280;23096;50.892;16.746;2023-01-28T13:02:20;100207.48;;;-2.08;87.24
37200;BME280;23096;50.892;16.746;2023-01-28T13:07:43;100213.72;;;-2.03;87.18
37200;BME280;23096;50.892;16.746;2023-01-28T13:10:16;100210.19;;;-2.03;87.22
37200;BME280;23096;50.892;16.746;2023-01-28T13:12:43;100207.85;;;-2.07;87.07
37200;BME280;23096;50.892;16.746;2023-01-28T13:15:12;100206.63;;;-2.08;87.22
37200;BME280;23096;50.892;16.746;2023-01-28T13:17:52;100208.48;;;-2.08;87.18
37200;BME280;23096;50.892;16.746;2023-01-28T13:20:28;100208.05;;;-2.06;87.16
37200;BME280;23096;50.892;16.746;2023-01-28T13:23:37;100208.64;;;-2.04;87.21
37200;BME280;23096;50.892;16.746;2023-01-28T13:25:47;100209.90;;;-2.01;87.13
37200;BME280;23096;50.892;16.746;2023-01-28T13:28:24;100211.34;;;-2.03;87.12
37200;BME280;23096;50.892;16.746;2023-01-28T13:30:50;100214.80;;;-2.05;87.17
37200;BME280;23096;50.892;16.746;2023-01-28T13:33:31;100211.29;;;-2.09;86.99
37200;BME280;23096;50.892;16.746;2023-01-28T13:35:57;100205.89;;;-2.10;87.03
37200;BME280;23096;50.892;16.746;2023-01-28T13:38:22;100210.77;;;-2.05;87.12
37200;BME280;23096;50.892;16.746;2023-01-28T13:40:59;100209.58;;;-2.06;87.14
37200;BME280;23096;50.892;16.746;2023-01-28T13:46:06;100209.68;;;-2.07;86.95
37200;BME280;23096;50.892;16.746;2023-01-28T13:48:34;100212.67;;;-2.08;87.09
37200;BME280;23096;50.892;16.746;2023-01-28T13:51:04;100214.48;;;-2.09;87.05
37200;BME280;23096;50.892;16.746;2023-01-28T13:53:43;100216.25;;;-2.12;86.97
37200;BME280;23096;50.892;16.746;2023-01-28T13:56:20;100222.39;;;-2.15;87.04
37200;BME280;23096;50.892;16.746;2023-01-28T14:19:41;100241.38;;;-2.11;86.73
37200;BME280;23096;50.892;16.746;2023-01-28T14:22:06;100243.38;;;-2.11;86.65
37200;BME280;23096;50.892;16.746;2023-01-28T14:24:32;100247.45;;;-2.16;86.68
37200;BME280;23096;50.892;16.746;2023-01-28T14:27:01;100248.21;;;-2.18;86.62
37200;BME280;23096;50.892;16.746;2023-01-28T14:32:03;100247.54;;;-2.14;86.65
37200;BME280;23096;50.892;16.746;2023-01-28T14:34:31;100252.60;;;-2.13;86.64
37200;BME280;23096;50.892;16.746;2023-01-28T14:37:08;100253.50;;;-2.11;86.57
37200;BME280;23096;50.892;16.746;2023-01-28T14:42:04;100253.40;;;-2.14;86.59
37200;BME280;23096;50.892;16.746;2023-01-28T14:49:51;100257.86;;;-2.26;86.44
37200;BME280;23096;50.892;16.746;2023-01-28T14:54:56;100261.59;;;-2.30;86.44
37200;BME280;23096;50.892;16.746;2023-01-28T14:59:52;100260.15;;;-2.33;86.37
37200;BME280;23096;50.892;16.746;2023-01-28T15:02:21;100260.41;;;-2.34;86.35
37200;BME280;23096;50.892;16.746;2023-01-28T15:04:47;100258.31;;;-2.37;86.36
37200;BME280;23096;50.892;16.746;2023-01-28T15:07:23;100266.15;;;-2.34;86.31
37200;BME280;23096;50.892;16.746;2023-01-28T15:10:01;100263.03;;;-2.32;86.29